Sainte-Anne-Des-Monts, Canada
Current Conditions -  °F | °C
As of 9:00 AM on Tuesday 21 Oct 2014 (Local Time) from CYZV Reporting Station
Broken Clouds Broken Clouds  
Wind Chill: 38°   Ceiling: 4700
Heat Index: 41°   Visibility: 30mi
Dew Point: 32°   Wind: 5mph
Humidity: 70%   Direction: 300°WNW
Pressure: 29.99"   Gusts: NA
Location:  49.12°N, 66.48°W
Report Text: CYZV 211300Z 30004KT 30SM FEW030 BKN047 BKN080 05/00 A2999 RMK CU1SC7AC1 CU TR AC TR SLP158
Loading
Personal Weather Stations






























Interactive Weather Map
Tropical Storm Tracking
New forecast layout! Learn more

10-Day Weather Forecast

Advertisements
Track Severe Weather on mobile